Time;durP1;ratioP1;P1;durP2;ratioP2;P2;SDS_P1;SDS_P2;PMS_P1;PMS_P2;Temp;Humidity;BMP_temperature;BMP_pressure;BME280_temperature;BME280_humidity;BME280_pressure;Samples;Min_cycle;Max_cycle;Signal;HPM_P1;HPM_P2
2023/06/07 00:01:33;;;;;;;;;;;19.50;69.20;;;;;;4987667;28;19916;-71
2023/06/07 00:03:59;;;;;;;;;;;19.50;69.30;;;;;;4996739;28;19934;-70
2023/06/07 00:06:24;;;;;;;;;;;19.50;69.40;;;;;;4987851;28;20435;-71
2023/06/07 00:08:50;;;;;;;;;;;19.50;69.30;;;;;;4992707;28;19941;-71
2023/06/07 00:11:15;;;;;;;;;;;19.50;69.50;;;;;;4987273;28;20060;-71
2023/06/07 00:13:41;;;;;;;;;;;19.40;69.20;;;;;;4989442;28;19945;-71
2023/06/07 00:16:07;;;;;;;;;;;19.50;69.20;;;;;;4993129;28;19935;-71
2023/06/07 00:18:32;;;;;;;;;;;19.40;69.50;;;;;;4990563;28;19910;-71
2023/06/07 00:20:58;;;;;;;;;;;19.40;69.40;;;;;;4991930;28;20037;-71
2023/06/07 00:23:28;;;;;;;;;;;19.40;69.50;;;;;;4997702;28;19994;-71
2023/06/07 00:25:54;;;;;;;;;;;19.40;69.60;;;;;;4986684;28;20340;-71
2023/06/07 00:28:20;;;;;;;;;;;19.40;69.50;;;;;;4997525;28;19910;-71
2023/06/07 00:30:45;;;;;;;;;;;19.40;69.70;;;;;;4989454;28;19917;-71
2023/06/07 00:33:11;;;;;;;;;;;19.40;69.60;;;;;;5045073;28;20482;-71
2023/06/07 00:35:36;;;;;;;;;;;19.30;69.80;;;;;;5021110;28;20316;-71
2023/06/07 00:38:03;;;;;;;;;;;19.30;69.80;;;;;;4993770;28;20387;-71
2023/06/07 00:40:29;;;;;;;;;;;19.30;69.60;;;;;;4993311;28;20641;-71
2023/06/07 00:42:54;;;;;;;;;;;19.30;69.90;;;;;;4997810;28;19924;-71
2023/06/07 00:45:20;;;;;;;;;;;19.30;69.70;;;;;;4994080;28;19910;-71
2023/06/07 00:47:45;;;;;;;;;;;19.30;69.70;;;;;;4987661;28;20351;-72
2023/06/07 00:50:11;;;;;;;;;;;19.30;70.00;;;;;;4986073;28;19914;-71
2023/06/07 00:52:37;;;;;;;;;;;19.30;69.80;;;;;;4996550;28;19975;-71
2023/06/07 00:55:03;;;;;;;;;;;19.30;69.90;;;;;;4996671;28;19913;-71
2023/06/07 00:57:35;;;;;;;;;;;19.20;69.80;;;;;;4994921;28;19928;-71
2023/06/07 01:00:01;;;;;;;;;;;19.20;69.90;;;;;;4996764;28;19975;-71
2023/06/07 01:02:29;;;;;;;;;;;19.20;70.00;;;;;;4992390;28;19921;-71
2023/06/07 01:04:55;;;;;;;;;;;19.20;69.90;;;;;;4994414;28;19996;-71
2023/06/07 01:07:24;;;;;;;;;;;19.20;69.90;;;;;;4992658;28;20402;-71
2023/06/07 01:09:51;;;;;;;;;;;19.20;69.90;;;;;;4993395;28;20359;-71
2023/06/07 01:12:18;;;;;;;;;;;19.20;70.00;;;;;;4991736;28;19914;-71
2023/06/07 01:14:45;;;;;;;;;;;19.20;70.10;;;;;;4997238;28;19949;-71
2023/06/07 01:17:12;;;;;;;;;;;19.20;70.10;;;;;;4990927;28;19921;-71
2023/06/07 01:19:39;;;;;;;;;;;19.10;70.00;;;;;;4997354;28;19910;-71
2023/06/07 01:22:05;;;;;;;;;;;19.10;70.10;;;;;;4993925;28;19920;-71
2023/06/07 01:24:31;;;;;;;;;;;19.10;70.00;;;;;;4987768;28;19918;-71
2023/06/07 01:26:58;;;;;;;;;;;19.10;70.10;;;;;;4986816;28;19953;-71
2023/06/07 01:29:25;;;;;;;;;;;19.10;70.20;;;;;;4997137;28;19914;-71
2023/06/07 01:31:52;;;;;;;;;;;19.10;70.20;;;;;;5025526;28;19940;-71
2023/06/07 01:34:18;;;;;;;;;;;19.00;70.20;;;;;;5029420;28;19921;-70
2023/06/07 01:36:43;;;;;;;;;;;19.00;70.20;;;;;;5002852;28;19914;-71
2023/06/07 01:39:10;;;;;;;;;;;19.10;70.20;;;;;;4992243;28;19917;-71
2023/06/07 01:41:36;;;;;;;;;;;19.00;70.30;;;;;;4984172;28;20327;-71
2023/06/07 01:44:01;;;;;;;;;;;19.00;70.10;;;;;;4988645;28;19964;-71
2023/06/07 01:46:27;;;;;;;;;;;19.00;70.20;;;;;;4995293;28;20359;-71
2023/06/07 01:48:53;;;;;;;;;;;19.00;70.00;;;;;;5031833;28;19956;-71
2023/06/07 01:51:18;;;;;;;;;;;19.00;70.30;;;;;;4989763;28;19913;-71
2023/06/07 01:53:45;;;;;;;;;;;19.00;70.30;;;;;;4988306;28;19913;-71
2023/06/07 01:56:18;;;;;;;;;;;18.90;70.30;;;;;;4995486;28;20050;-71
2023/06/07 01:58:48;;;;;;;;;;;18.90;70.20;;;;;;4999757;28;19910;-71
2023/06/07 02:01:14;;;;;;;;;;;19.00;70.40;;;;;;4987087;28;20397;-71
2023/06/07 02:03:43;;;;;;;;;;;18.90;70.40;;;;;;4999609;28;19917;-71
2023/06/07 02:06:10;;;;;;;;;;;18.90;70.50;;;;;;4988326;28;19913;-72
2023/06/07 02:08:37;;;;;;;;;;;18.90;70.30;;;;;;4994450;28;19945;-71
2023/06/07 02:11:03;;;;;;;;;;;18.90;70.30;;;;;;4988811;28;19962;-70
2023/06/07 02:13:33;;;;;;;;;;;18.90;70.50;;;;;;4999229;28;20387;-71
2023/06/07 02:15:58;;;;;;;;;;;18.90;70.40;;;;;;4988518;28;19910;-71
2023/06/07 02:18:24;;;;;;;;;;;18.80;70.50;;;;;;4999334;28;19921;-71
2023/06/07 02:20:50;;;;;;;;;;;18.80;70.50;;;;;;4988720;28;19910;-71
2023/06/07 02:23:15;;;;;;;;;;;18.80;70.70;;;;;;4994185;28;20008;-71
2023/06/07 02:25:41;;;;;;;;;;;18.80;70.60;;;;;;4992430;28;19917;-71
2023/06/07 02:28:06;;;;;;;;;;;18.80;70.50;;;;;;4997895;28;19914;-71
2023/06/07 02:30:32;;;;;;;;;;;18.80;70.70;;;;;;4990774;28;19917;-71
2023/06/07 02:32:57;;;;;;;;;;;18.70;70.70;;;;;;5034550;28;19921;-71
2023/06/07 02:35:23;;;;;;;;;;;18.70;70.60;;;;;;5028589;28;19914;-71
2023/06/07 02:37:48;;;;;;;;;;;18.70;70.60;;;;;;4990340;28;19918;-71
2023/06/07 02:40:14;;;;;;;;;;;18.70;70.80;;;;;;4993528;28;19914;-71
2023/06/07 02:42:47;;;;;;;;;;;18.70;70.80;;;;;;4992255;28;20025;-70
2023/06/07 02:45:13;;;;;;;;;;;18.70;71.00;;;;;;4993355;28;19910;-71
2023/06/07 02:47:39;;;;;;;;;;;18.70;70.70;;;;;;4994908;28;19993;-71
2023/06/07 02:50:06;;;;;;;;;;;18.70;70.80;;;;;;4994637;28;19925;-71
2023/06/07 02:52:33;;;;;;;;;;;18.70;70.90;;;;;;4994303;28;19918;-71
2023/06/07 02:54:59;;;;;;;;;;;18.70;70.80;;;;;;4995260;28;19921;-70
2023/06/07 02:57:25;;;;;;;;;;;18.60;70.80;;;;;;5021997;28;19918;-71
2023/06/07 02:59:52;;;;;;;;;;;18.60;70.90;;;;;;4982464;28;19910;-71
2023/06/07 03:02:18;;;;;;;;;;;18.60;71.00;;;;;;4990270;28;19913;-70
2023/06/07 03:04:44;;;;;;;;;;;18.60;70.90;;;;;;4995612;28;19910;-70
2023/06/07 03:07:10;;;;;;;;;;;18.60;71.10;;;;;;4992376;28;19926;-71
2023/06/07 03:09:36;;;;;;;;;;;18.60;70.90;;;;;;4981148;28;20545;-71
2023/06/07 03:12:01;;;;;;;;;;;18.60;70.90;;;;;;4991812;28;19920;-71
2023/06/07 03:14:27;;;;;;;;;;;18.60;71.10;;;;;;4995586;28;19914;-71
2023/06/07 03:16:53;;;;;;;;;;;18.50;71.00;;;;;;4993099;28;19925;-70
2023/06/07 03:19:18;;;;;;;;;;;18.50;71.70;;;;;;4986024;28;19910;-71
2023/06/07 03:21:44;;;;;;;;;;;18.50;71.00;;;;;;4991591;28;19958;-71
2023/06/07 03:24:13;;;;;;;;;;;18.50;71.10;;;;;;4998182;28;19925;-71
2023/06/07 03:26:39;;;;;;;;;;;18.50;71.00;;;;;;4994307;28;19996;-71
2023/06/07 03:29:05;;;;;;;;;;;18.50;71.00;;;;;;4995715;28;19925;-71
2023/06/07 03:31:31;;;;;;;;;;;18.50;71.20;;;;;;5013497;28;19912;-71
2023/06/07 03:33:57;;;;;;;;;;;18.40;71.30;;;;;;5043200;28;20438;-71
2023/06/07 03:36:25;;;;;;;;;;;18.40;71.20;;;;;;5002165;28;19948;-70
2023/06/07 03:38:52;;;;;;;;;;;18.40;71.30;;;;;;4992618;28;19920;-72
2023/06/07 03:41:18;;;;;;;;;;;18.40;71.30;;;;;;4987893;28;20004;-70
2023/06/07 03:43:43;;;;;;;;;;;18.40;71.40;;;;;;4998165;28;19997;-71
2023/06/07 03:46:09;;;;;;;;;;;18.40;71.40;;;;;;4987042;28;19953;-71
2023/06/07 03:48:34;;;;;;;;;;;18.30;71.20;;;;;;4998141;28;19952;-71
2023/06/07 03:51:00;;;;;;;;;;;18.40;71.50;;;;;;4994224;28;19921;-70
2023/06/07 03:53:25;;;;;;;;;;;18.40;71.60;;;;;;4998228;28;19981;-71
2023/06/07 03:55:52;;;;;;;;;;;18.30;71.60;;;;;;4986818;28;20728;-71
2023/06/07 03:58:18;;;;;;;;;;;18.30;71.50;;;;;;5025582;28;20278;-71
2023/06/07 04:00:44;;;;;;;;;;;18.30;72.20;;;;;;4989753;28;19910;-70
2023/06/07 04:03:10;;;;;;;;;;;18.30;71.60;;;;;;4987349;28;19917;-71
2023/06/07 04:05:38;;;;;;;;;;;18.30;71.70;;;;;;4988863;28;20007;-70
2023/06/07 04:08:06;;;;;;;;;;;18.30;71.60;;;;;;4983525;28;19910;-71
2023/06/07 04:10:32;;;;;;;;;;;18.30;71.60;;;;;;4994720;28;20009;-70
2023/06/07 04:12:58;;;;;;;;;;;18.20;71.70;;;;;;4998742;28;20004;-71
2023/06/07 04:15:23;;;;;;;;;;;18.20;71.70;;;;;;4992964;28;19914;-71
2023/06/07 04:17:49;;;;;;;;;;;18.20;71.90;;;;;;4997446;28;19924;-71
2023/06/07 04:20:14;;;;;;;;;;;18.20;71.90;;;;;;4995468;28;20831;-70
2023/06/07 04:22:41;;;;;;;;;;;18.20;71.70;;;;;;4997430;28;19922;-71
2023/06/07 04:25:07;;;;;;;;;;;18.20;71.90;;;;;;4996602;28;20669;-71
2023/06/07 04:27:34;;;;;;;;;;;18.20;71.90;;;;;;4996150;28;19936;-70
2023/06/07 04:30:01;;;;;;;;;;;18.20;72.00;;;;;;4997428;28;20645;-71
2023/06/07 04:32:27;;;;;;;;;;;18.20;72.00;;;;;;5030995;28;19921;-71
2023/06/07 04:34:53;;;;;;;;;;;18.10;72.00;;;;;;5038859;28;20605;-71
2023/06/07 04:37:19;;;;;;;;;;;18.10;72.10;;;;;;4993775;28;19961;-71
2023/06/07 04:39:48;;;;;;;;;;;18.10;72.10;;;;;;4993690;28;20552;-70
2023/06/07 04:42:16;;;;;;;;;;;18.10;72.10;;;;;;4995122;28;19914;-71
2023/06/07 04:44:42;;;;;;;;;;;18.10;72.20;;;;;;4997786;28;19914;-71
2023/06/07 04:47:09;;;;;;;;;;;18.10;72.10;;;;;;4994130;28;19916;-71
2023/06/07 04:49:35;;;;;;;;;;;18.10;72.00;;;;;;4988101;28;20374;-71
2023/06/07 04:52:04;;;;;;;;;;;18.10;72.20;;;;;;4993775;28;19917;-71
2023/06/07 04:54:29;;;;;;;;;;;18.00;72.20;;;;;;4997440;28;19982;-71
2023/06/07 04:56:56;;;;;;;;;;;18.00;72.30;;;;;;4987003;28;19917;-71
2023/06/07 04:59:23;;;;;;;;;;;18.00;72.50;;;;;;4996972;28;19920;-71
2023/06/07 05:01:48;;;;;;;;;;;18.00;72.50;;;;;;4992092;28;19999;-71
2023/06/07 05:04:16;;;;;;;;;;;18.00;72.50;;;;;;4987802;28;19917;-71
2023/06/07 05:06:42;;;;;;;;;;;18.00;72.60;;;;;;4992837;28;20370;-71
2023/06/07 05:09:07;;;;;;;;;;;18.00;72.50;;;;;;4992983;28;19953;-70
2023/06/07 05:11:33;;;;;;;;;;;18.00;72.70;;;;;;4992234;28;19916;-70
2023/06/07 05:13:58;;;;;;;;;;;18.00;72.60;;;;;;4991091;28;19909;-71
2023/06/07 05:16:24;;;;;;;;;;;18.00;72.70;;;;;;4992042;28;19914;-71
2023/06/07 05:18:50;;;;;;;;;;;18.00;72.80;;;;;;5000135;28;19920;-70
2023/06/07 05:21:16;;;;;;;;;;;18.00;72.90;;;;;;4989731;28;19918;-71
2023/06/07 05:23:42;;;;;;;;;;;18.00;72.80;;;;;;5000316;28;19921;-70
2023/06/07 05:26:07;;;;;;;;;;;18.00;72.80;;;;;;4989205;28;19913;-70
2023/06/07 05:28:33;;;;;;;;;;;17.90;72.70;;;;;;5000202;28;19993;-71
2023/06/07 05:31:01;;;;;;;;;;;17.90;72.70;;;;;;5023586;28;20453;-71
2023/06/07 05:33:28;;;;;;;;;;;17.90;72.90;;;;;;5050383;28;19965;-71
2023/06/07 05:35:54;;;;;;;;;;;17.90;73.10;;;;;;5007818;28;19967;-71
2023/06/07 05:38:20;;;;;;;;;;;17.90;73.00;;;;;;4994775;28;20355;-70
2023/06/07 05:40:45;;;;;;;;;;;17.90;73.10;;;;;;4990210;28;20496;-71
2023/06/07 05:43:11;;;;;;;;;;;17.90;73.10;;;;;;5013920;28;19913;-71
2023/06/07 05:45:37;;;;;;;;;;;17.90;73.10;;;;;;4989418;28;19913;-71
2023/06/07 05:48:02;;;;;;;;;;;17.90;73.20;;;;;;4998044;28;19921;-71
2023/06/07 05:50:28;;;;;;;;;;;17.80;72.90;;;;;;4995013;28;19914;-71
2023/06/07 05:52:57;;;;;;;;;;;17.90;73.30;;;;;;4996795;28;19975;-71
2023/06/07 05:55:26;;;;;;;;;;;17.90;73.30;;;;;;4992619;28;19915;-71
2023/06/07 05:57:52;;;;;;;;;;;17.90;73.30;;;;;;4996335;28;20468;-71
2023/06/07 06:00:18;;;;;;;;;;;17.90;73.40;;;;;;4995122;28;19996;-71
2023/06/07 06:02:46;;;;;;;;;;;17.90;73.30;;;;;;4992368;28;20013;-71
2023/06/07 06:05:12;;;;;;;;;;;17.90;73.40;;;;;;4994196;28;19913;-70
2023/06/07 06:07:37;;;;;;;;;;;17.80;73.40;;;;;;4991958;28;19920;-70
2023/06/07 06:10:04;;;;;;;;;;;17.80;73.20;;;;;;4984463;28;19944;-70
2023/06/07 06:12:32;;;;;;;;;;;17.80;73.40;;;;;;4994421;28;19917;-71
2023/06/07 06:14:59;;;;;;;;;;;17.80;73.40;;;;;;4995897;28;19918;-71
2023/06/07 06:17:25;;;;;;;;;;;17.80;73.40;;;;;;4993304;28;19941;-70
2023/06/07 06:19:50;;;;;;;;;;;17.80;73.40;;;;;;4995549;28;20339;-71
2023/06/07 06:22:16;;;;;;;;;;;17.80;73.40;;;;;;4993684;28;19914;-70
2023/06/07 06:24:42;;;;;;;;;;;17.80;73.50;;;;;;4996351;28;19945;-71
2023/06/07 06:27:08;;;;;;;;;;;17.80;73.30;;;;;;4992620;28;19909;-70
2023/06/07 06:29:33;;;;;;;;;;;17.80;73.50;;;;;;4996443;28;19910;-70
2023/06/07 06:31:59;;;;;;;;;;;17.80;73.60;;;;;;5028279;28;20544;-71
2023/06/07 06:34:25;;;;;;;;;;;17.80;73.50;;;;;;5028733;28;20008;-71
2023/06/07 06:36:50;;;;;;;;;;;17.80;73.40;;;;;;4992384;28;20017;-71
2023/06/07 06:39:16;;;;;;;;;;;17.90;73.60;;;;;;4990615;28;19921;-70
2023/06/07 06:41:42;;;;;;;;;;;17.80;73.60;;;;;;4991822;28;19970;-70
2023/06/07 06:44:07;;;;;;;;;;;17.80;73.60;;;;;;4996764;28;19909;-71
2023/06/07 06:46:33;;;;;;;;;;;17.80;73.70;;;;;;4985582;28;19910;-71
2023/06/07 06:48:58;;;;;;;;;;;17.80;73.60;;;;;;4995650;28;19913;-71
2023/06/07 06:51:24;;;;;;;;;;;17.80;73.70;;;;;;4989481;28;20424;-71
2023/06/07 06:53:49;;;;;;;;;;;17.80;73.70;;;;;;4998607;28;19914;-71
2023/06/07 06:56:15;;;;;;;;;;;17.80;73.80;;;;;;4987832;28;20017;-70
2023/06/07 06:58:40;;;;;;;;;;;17.80;73.80;;;;;;4990269;28;19921;-71
2023/06/07 07:01:07;;;;;;;;;;;17.80;73.80;;;;;;4989508;28;19914;-71
2023/06/07 07:03:32;;;;;;;;;;;17.80;73.80;;;;;;5012465;28;19939;-70
2023/06/07 07:05:58;;;;;;;;;;;17.80;74.00;;;;;;4990728;28;20397;-70
2023/06/07 07:08:24;;;;;;;;;;;17.80;74.00;;;;;;4985889;28;19921;-71
2023/06/07 07:10:49;;;;;;;;;;;17.80;74.00;;;;;;4999109;28;19920;-71
2023/06/07 07:13:15;;;;;;;;;;;17.80;74.00;;;;;;4968015;28;20305;-70
2023/06/07 07:15:40;;;;;;;;;;;17.80;73.90;;;;;;4967680;28;19910;-71
2023/06/07 07:18:07;;;;;;;;;;;17.80;73.90;;;;;;4983096;28;19926;-70
2023/06/07 07:20:33;;;;;;;;;;;17.80;74.00;;;;;;4996879;28;19913;-70
2023/06/07 07:23:01;;;;;;;;;;;17.80;74.10;;;;;;4983994;28;20374;-70
2023/06/07 07:25:27;;;;;;;;;;;17.80;74.00;;;;;;4988773;28;19953;-70
2023/06/07 07:27:53;;;;;;;;;;;17.80;74.10;;;;;;4983097;28;19959;-71
2023/06/07 07:30:18;;;;;;;;;;;17.80;74.20;;;;;;4996106;28;20416;-71
2023/06/07 07:32:44;;;;;;;;;;;17.80;74.30;;;;;;4985269;28;19917;-70
2023/06/07 07:35:09;;;;;;;;;;;17.80;74.30;;;;;;4996468;28;19990;-71
2023/06/07 07:37:35;;;;;;;;;;;17.80;74.40;;;;;;4979301;28;20556;-70
2023/06/07 07:40:01;;;;;;;;;;;17.80;74.30;;;;;;4996448;28;20236;-70
2023/06/07 07:42:26;;;;;;;;;;;17.80;74.40;;;;;;5006418;28;19914;-70
2023/06/07 07:44:52;;;;;;;;;;;17.80;74.40;;;;;;4996245;28;19913;-71
2023/06/07 07:47:17;;;;;;;;;;;17.70;74.40;;;;;;4982071;28;19914;-71
2023/06/07 07:49:43;;;;;;;;;;;17.70;74.50;;;;;;5002892;28;20381;-71
2023/06/07 07:52:08;;;;;;;;;;;17.70;74.60;;;;;;4983328;28;20645;-71
2023/06/07 07:54:35;;;;;;;;;;;17.70;74.50;;;;;;4994062;28;20376;-71
2023/06/07 07:57:01;;;;;;;;;;;17.70;74.40;;;;;;4987490;28;19918;-71
2023/06/07 07:59:26;;;;;;;;;;;17.80;74.50;;;;;;5018321;28;20393;-71
2023/06/07 08:01:52;;;;;;;;;;;17.80;74.60;;;;;;4998994;28;20000;-71
2023/06/07 08:04:18;;;;;;;;;;;17.80;74.70;;;;;;4988380;28;19947;-71
2023/06/07 08:06:45;;;;;;;;;;;17.80;74.80;;;;;;4989732;28;19914;-71
2023/06/07 08:09:10;;;;;;;;;;;17.80;74.90;;;;;;4985564;28;19952;-71
2023/06/07 08:11:36;;;;;;;;;;;17.80;74.90;;;;;;4988720;28;20518;-71
2023/06/07 08:14:02;;;;;;;;;;;17.80;74.90;;;;;;4988416;28;19914;-71
2023/06/07 08:16:27;;;;;;;;;;;17.80;74.90;;;;;;4990257;28;20029;-71
2023/06/07 08:18:59;;;;;;;;;;;17.70;74.80;;;;;;4986095;28;19955;-71
2023/06/07 08:21:27;;;;;;;;;;;17.70;74.80;;;;;;4991855;28;19946;-71
2023/06/07 08:23:56;;;;;;;;;;;17.70;74.80;;;;;;4985822;28;19926;-71
2023/06/07 08:26:22;;;;;;;;;;;17.70;75.00;;;;;;4991856;28;20367;-71
2023/06/07 08:28:48;;;;;;;;;;;17.70;74.90;;;;;;4984546;28;20645;-71
2023/06/07 08:31:13;;;;;;;;;;;17.70;75.00;;;;;;4992595;28;19914;-71
2023/06/07 08:33:39;;;;;;;;;;;17.70;75.00;;;;;;4984798;28;19914;-70
2023/06/07 08:36:04;;;;;;;;;;;17.70;75.10;;;;;;4993248;28;19964;-70
2023/06/07 08:38:30;;;;;;;;;;;17.80;75.10;;;;;;4979157;28;19979;-70
2023/06/07 08:40:56;;;;;;;;;;;17.80;75.30;;;;;;4993870;28;19914;-70
2023/06/07 08:43:23;;;;;;;;;;;17.80;75.30;;;;;;4985631;28;19939;-71
2023/06/07 08:45:51;;;;;;;;;;;17.80;75.30;;;;;;4993952;28;19999;-71
2023/06/07 08:48:17;;;;;;;;;;;17.80;75.40;;;;;;4982316;28;19913;-70
2023/06/07 08:50:44;;;;;;;;;;;17.80;75.50;;;;;;4994130;28;19945;-71
2023/06/07 08:53:12;;;;;;;;;;;17.80;75.60;;;;;;4983345;28;19952;-70
2023/06/07 08:55:38;;;;;;;;;;;17.80;75.70;;;;;;4996763;28;19914;-70
2023/06/07 08:58:06;;;;;;;;;;;17.80;75.80;;;;;;4996455;28;19932;-71
2023/06/07 09:00:32;;;;;;;;;;;17.80;75.70;;;;;;5033294;28;19914;-71
2023/06/07 09:02:57;;;;;;;;;;;17.90;75.70;;;;;;4986015;28;19920;-70
2023/06/07 09:05:23;;;;;;;;;;;17.80;75.70;;;;;;4997534;28;19949;-70
2023/06/07 09:07:49;;;;;;;;;;;17.90;75.80;;;;;;4979998;28;19914;-70
2023/06/07 09:10:17;;;;;;;;;;;17.80;75.80;;;;;;4997447;28;20708;-71
2023/06/07 09:12:45;;;;;;;;;;;17.90;76.70;;;;;;4985026;28;20040;-70
2023/06/07 09:15:15;;;;;;;;;;;17.90;76.00;;;;;;4998742;28;20692;-70
2023/06/07 09:17:53;;;;;;;;;;;17.90;75.90;;;;;;4984388;28;19964;-70
2023/06/07 09:20:20;;;;;;;;;;;17.90;75.90;;;;;;4996532;28;20013;-70
2023/06/07 09:22:54;;;;;;;;;;;17.90;76.10;;;;;;4992463;28;19932;-70
2023/06/07 09:25:20;;;;;;;;;;;17.90;75.90;;;;;;4996458;28;19936;-70
2023/06/07 09:27:49;;;;;;;;;;;17.90;76.70;;;;;;4984810;28;19918;-70
2023/06/07 09:30:15;;;;;;;;;;;18.00;76.50;;;;;;4995688;28;19914;-70
2023/06/07 09:32:40;;;;;;;;;;;18.00;76.10;;;;;;4983253;28;19920;-70
2023/06/07 09:35:13;;;;;;;;;;;18.00;76.10;;;;;;4998424;28;20556;-71
2023/06/07 09:37:43;;;;;;;;;;;18.00;76.10;;;;;;4994311;28;20562;-70
2023/06/07 09:40:09;;;;;;;;;;;18.10;76.20;;;;;;4994172;28;19910;-71
2023/06/07 09:42:35;;;;;;;;;;;18.10;76.30;;;;;;4989534;28;20319;-70
2023/06/07 09:45:09;;;;;;;;;;;18.10;76.20;;;;;;4998355;28;19916;-70
2023/06/07 09:47:35;;;;;;;;;;;18.10;76.20;;;;;;4983980;28;19918;-70
2023/06/07 09:50:07;;;;;;;;;;;18.10;76.50;;;;;;4998351;28;20315;-70
2023/06/07 09:52:32;;;;;;;;;;;18.20;76.50;;;;;;4991354;28;19918;-70
2023/06/07 09:54:58;;;;;;;;;;;18.20;76.40;;;;;;4998326;28;19970;-70
2023/06/07 09:57:23;;;;;;;;;;;18.20;76.50;;;;;;4990603;28;19925;-70
2023/06/07 09:59:59;;;;;;;;;;;18.30;76.50;;;;;;5037750;28;19916;-71
2023/06/07 10:02:28;;;;;;;;;;;18.30;76.50;;;;;;4977976;28;19920;-70
2023/06/07 10:04:56;;;;;;;;;;;18.30;76.40;;;;;;4990596;28;19909;-70
2023/06/07 10:07:25;;;;;;;;;;;18.40;76.60;;;;;;4988539;28;19914;-70
2023/06/07 10:09:56;;;;;;;;;;;18.40;76.60;;;;;;4994844;28;19909;-70
2023/06/07 10:12:22;;;;;;;;;;;18.40;76.60;;;;;;4987845;28;19913;-70
2023/06/07 10:14:48;;;;;;;;;;;18.50;76.60;;;;;;4999785;28;19914;-70
2023/06/07 10:17:15;;;;;;;;;;;18.50;76.60;;;;;;4983591;28;19917;-70
2023/06/07 10:19:42;;;;;;;;;;;18.60;76.60;;;;;;4996606;28;19909;-70
2023/06/07 10:22:11;;;;;;;;;;;18.60;76.50;;;;;;4984962;28;20070;-70
2023/06/07 10:24:42;;;;;;;;;;;18.70;76.70;;;;;;4996132;28;20670;-70
2023/06/07 10:27:13;;;;;;;;;;;18.90;76.80;;;;;;4984730;28;19916;-71
2023/06/07 10:29:44;;;;;;;;;;;18.90;76.50;;;;;;4996056;28;19910;-70
2023/06/07 10:32:16;;;;;;;;;;;19.00;76.60;;;;;;4980998;28;20332;-70
2023/06/07 10:34:43;;;;;;;;;;;19.10;76.10;;;;;;4986708;28;19921;-70
2023/06/07 10:37:09;;;;;;;;;;;19.20;76.40;;;;;;4991274;28;19913;-70
2023/06/07 10:39:38;;;;;;;;;;;19.20;76.30;;;;;;4995514;28;20286;-70
2023/06/07 10:42:04;;;;;;;;;;;19.20;76.00;;;;;;4985351;28;20359;-70
2023/06/07 10:44:30;;;;;;;;;;;19.30;76.10;;;;;;4994645;28;19967;-70
2023/06/07 10:47:14;;;;;;;;;;;19.30;75.90;;;;;;5017148;28;19910;-70
2023/06/07 10:49:40;;;;;;;;;;;19.30;76.10;;;;;;4991371;28;20328;-70
2023/06/07 10:52:06;;;;;;;;;;;19.40;76.10;;;;;;4985199;28;19910;-70
2023/06/07 10:54:32;;;;;;;;;;;19.40;76.30;;;;;;4994753;28;19959;-70
2023/06/07 10:56:59;;;;;;;;;;;19.50;76.40;;;;;;5020250;28;19918;-70
2023/06/07 10:59:25;;;;;;;;;;;19.50;76.20;;;;;;5019831;28;19912;-70
2023/06/07 11:01:52;;;;;;;;;;;19.60;76.00;;;;;;5001221;28;20684;-70
2023/06/07 11:04:39;;;;;;;;;;;19.60;76.20;;;;;;4986360;28;19913;-70
2023/06/07 11:07:15;;;;;;;;;;;19.70;76.00;;;;;;4991192;28;20056;-72
2023/06/07 11:09:41;;;;;;;;;;;19.80;75.70;;;;;;4991453;28;19920;-70
2023/06/07 11:12:07;;;;;;;;;;;19.90;75.70;;;;;;4986914;28;19914;-70
2023/06/07 11:14:33;;;;;;;;;;;20.00;75.70;;;;;;4994569;28;20007;-70
2023/06/07 11:16:58;;;;;;;;;;;20.10;75.60;;;;;;4984784;28;19949;-70
2023/06/07 11:19:24;;;;;;;;;;;20.20;75.10;;;;;;4986026;28;20367;-70
2023/06/07 11:21:57;;;;;;;;;;;20.20;75.20;;;;;;4990296;28;19914;-69
2023/06/07 11:24:23;;;;;;;;;;;20.30;75.00;;;;;;4986590;28;19917;-70
2023/06/07 11:26:50;;;;;;;;;;;20.40;74.90;;;;;;4986033;28;20397;-70
2023/06/07 11:29:16;;;;;;;;;;;20.50;75.00;;;;;;4986508;28;19941;-70
2023/06/07 11:31:42;;;;;;;;;;;20.50;75.00;;;;;;5008431;28;19913;-70
2023/06/07 11:34:12;;;;;;;;;;;20.60;74.90;;;;;;4991669;28;20000;-70
2023/06/07 11:36:37;;;;;;;;;;;20.60;74.90;;;;;;4988761;28;19921;-69
2023/06/07 11:39:08;;;;;;;;;;;20.70;74.70;;;;;;4984323;28;19910;-70
2023/06/07 11:41:34;;;;;;;;;;;20.70;74.70;;;;;;4989926;28;19910;-70
2023/06/07 11:44:01;;;;;;;;;;;20.70;74.60;;;;;;4988433;28;19914;-70
2023/06/07 11:46:36;;;;;;;;;;;20.80;74.90;;;;;;4991351;28;19921;-70
2023/06/07 11:49:11;;;;;;;;;;;20.80;74.80;;;;;;4989150;28;19940;-70
2023/06/07 11:51:36;;;;;;;;;;;20.80;75.10;;;;;;5020531;28;19910;-70
2023/06/07 11:54:02;;;;;;;;;;;20.90;74.90;;;;;;4989189;28;19921;-70
2023/06/07 11:56:28;;;;;;;;;;;20.90;74.70;;;;;;5022627;28;19964;-70
2023/06/07 11:59:00;;;;;;;;;;;21.10;74.60;;;;;;4997571;28;20414;-70
2023/06/07 12:01:26;;;;;;;;;;;21.10;74.50;;;;;;5033618;28;19918;-70
2023/06/07 12:03:52;;;;;;;;;;;21.20;74.30;;;;;;4986272;28;20004;-70
2023/06/07 12:06:18;;;;;;;;;;;21.30;74.30;;;;;;4992650;28;20083;-70
2023/06/07 12:08:48;;;;;;;;;;;21.40;74.00;;;;;;4980191;28;19948;-70
2023/06/07 12:11:14;;;;;;;;;;;21.40;73.80;;;;;;4993404;28;20844;-70
2023/06/07 12:13:40;;;;;;;;;;;21.50;73.90;;;;;;4981748;28;20016;-70
2023/06/07 12:16:10;;;;;;;;;;;21.50;73.60;;;;;;4993185;28;19910;-70
2023/06/07 12:18:35;;;;;;;;;;;21.50;73.70;;;;;;4986820;28;19918;-70
2023/06/07 12:21:01;;;;;;;;;;;21.60;73.50;;;;;;4984808;28;19913;-70
2023/06/07 12:23:26;;;;;;;;;;;21.60;73.60;;;;;;4984340;28;20445;-70
2023/06/07 12:26:04;;;;;;;;;;;21.70;73.50;;;;;;4994864;28;20372;-70
2023/06/07 12:28:30;;;;;;;;;;;21.70;73.60;;;;;;4984748;28;20004;-70
2023/06/07 12:30:55;;;;;;;;;;;21.60;73.60;;;;;;4994423;28;20503;-70
2023/06/07 12:33:24;;;;;;;;;;;21.70;73.80;;;;;;4985633;28;20036;-70
2023/06/07 12:35:50;;;;;;;;;;;21.70;73.90;;;;;;4998065;28;19921;-70
2023/06/07 12:38:18;;;;;;;;;;;21.70;73.80;;;;;;4981574;28;19914;-71
2023/06/07 12:40:45;;;;;;;;;;;21.70;73.80;;;;;;4988606;28;19921;-70
2023/06/07 12:43:11;;;;;;;;;;;21.70;73.70;;;;;;4986985;28;19910;-70
2023/06/07 12:45:37;;;;;;;;;;;21.70;73.80;;;;;;4997663;28;20272;-70
2023/06/07 12:48:02;;;;;;;;;;;21.70;73.80;;;;;;4986389;28;19914;-70
2023/06/07 12:50:28;;;;;;;;;;;21.70;73.90;;;;;;4997999;28;19910;-70
2023/06/07 12:52:54;;;;;;;;;;;21.70;73.90;;;;;;4986203;28;19913;-70
2023/06/07 12:55:19;;;;;;;;;;;21.70;74.00;;;;;;4998435;28;19920;-70
2023/06/07 12:57:46;;;;;;;;;;;21.70;74.00;;;;;;4989086;28;20279;-70
2023/06/07 13:00:12;;;;;;;;;;;21.70;74.00;;;;;;5040755;28;20542;-70
2023/06/07 13:02:38;;;;;;;;;;;21.70;74.10;;;;;;4985169;28;19914;-70
2023/06/07 13:05:04;;;;;;;;;;;21.70;74.10;;;;;;4989344;28;19917;-70
2023/06/07 13:07:30;;;;;;;;;;;21.70;74.20;;;;;;4980784;28;20116;-70
2023/06/07 13:09:55;;;;;;;;;;;21.70;74.20;;;;;;5025418;28;19913;-70
2023/06/07 13:12:21;;;;;;;;;;;21.70;74.30;;;;;;5021865;28;20254;-70
2023/06/07 13:14:46;;;;;;;;;;;21.70;74.30;;;;;;4998636;28;19913;-70
2023/06/07 13:17:12;;;;;;;;;;;21.60;74.40;;;;;;4984106;28;20328;-70
2023/06/07 13:19:38;;;;;;;;;;;21.70;74.60;;;;;;4995189;28;19945;-70
2023/06/07 13:22:04;;;;;;;;;;;21.80;74.40;;;;;;4986511;28;19910;-70
2023/06/07 13:24:30;;;;;;;;;;;21.90;74.10;;;;;;4988080;28;19929;-70
2023/06/07 13:26:55;;;;;;;;;;;22.00;73.70;;;;;;4991957;28;19975;-70
2023/06/07 13:29:21;;;;;;;;;;;22.20;73.20;;;;;;4992046;28;20005;-70
2023/06/07 13:31:46;;;;;;;;;;;22.40;72.90;;;;;;4988502;28;20429;-70
2023/06/07 13:34:12;;;;;;;;;;;22.50;72.80;;;;;;5024641;28;20374;-70
2023/06/07 13:36:38;;;;;;;;;;;22.50;72.60;;;;;;4979295;28;19918;-70
2023/06/07 13:39:04;;;;;;;;;;;22.60;73.60;;;;;;4988226;28;19921;-70
2023/06/07 13:41:30;;;;;;;;;;;22.60;72.60;;;;;;4991393;28;19914;-70
2023/06/07 13:43:55;;;;;;;;;;;22.60;72.60;;;;;;4991591;28;20009;-70
2023/06/07 13:46:21;;;;;;;;;;;22.70;72.70;;;;;;4988838;28;19911;-70
2023/06/07 13:48:46;;;;;;;;;;;22.70;72.60;;;;;;4989046;28;19914;-70
2023/06/07 13:51:12;;;;;;;;;;;22.80;72.50;;;;;;4990079;28;20035;-70
2023/06/07 13:53:39;;;;;;;;;;;22.90;72.40;;;;;;4989616;28;20012;-70
2023/06/07 13:56:05;;;;;;;;;;;23.00;72.00;;;;;;4989792;28;19914;-70
2023/06/07 13:58:33;;;;;;;;;;;23.10;72.00;;;;;;5004948;28;19925;-70
2023/06/07 14:01:00;;;;;;;;;;;23.20;71.70;;;;;;4996653;28;19910;-70
2023/06/07 14:03:26;;;;;;;;;;;23.30;72.00;;;;;;4993531;28;19945;-70
2023/06/07 14:05:51;;;;;;;;;;;23.30;71.60;;;;;;4996612;28;19953;-70
2023/06/07 14:08:17;;;;;;;;;;;23.40;71.60;;;;;;4998077;28;20492;-70
2023/06/07 14:10:42;;;;;;;;;;;23.50;71.60;;;;;;4997515;28;19914;-70
2023/06/07 14:13:08;;;;;;;;;;;23.60;71.40;;;;;;4993394;28;19913;-70